This is the latest recevied weather packets stored in our database for station/object S55YIZ-7. If no packets are shown the sender has not sent any weather packets the latest 10 day(s).
| Time | Temp. | Humidity | Pressure | Rain* | Wind** | Luminosity | Snow |
|---|---|---|---|---|---|---|---|
| 1777659860 | 14.44° C | 69% | 1025.7 hPa | - | - | - | - |
| 1777658959 | 15° C | 65% | 1025.5 hPa | - | - | - | - |
| 1777658059 | 15° C | 69% | 1025.2 hPa | - | - | - | - |
| 1777657159 | 16.11° C | 60% | 1025.2 hPa | - | - | - | - |
| 1777656270 | 17.22° C | 52% | 1025.1 hPa | - | - | - | - |
| 1777655370 | 17.22° C | 48% | 1025 hPa | - | - | - | - |
| 1777654470 | 17.78° C | 48% | 1025 hPa | - | - | - | - |
| 1777653760 | 18.89° C | 44% | 1025.1 hPa | - | - | - | - |
| 1777653707 | 18.89° C | 44% | 1025.1 hPa | - | - | - | - |
| 1777653570 | 18.89° C | 44% | 1025.1 hPa | - | - | - | - |
| 1777652670 | 20° C | 42% | 1025.1 hPa | - | - | - | - |
| 1777651770 | 20.56° C | 31% | 1025 hPa | - | - | - | - |
| 1777650870 | 21.11° C | 31% | 1025 hPa | - | - | - | - |
| 1777650280 | 21.67° C | 30% | 1024.9 hPa | - | - | - | - |
| 1777649969 | 21.67° C | 30% | 1024.9 hPa | - | - | - | - |
| 1777649069 | 21.11° C | 30% | 1025 hPa | - | - | - | - |
| 1777648169 | 21.11° C | 29% | 1025.2 hPa | - | - | - | - |
| 1777647269 | 21.67° C | 30% | 1025.3 hPa | - | - | - | - |
| 1777646403 | 21.67° C | 31% | 1025.3 hPa | - | - | - | - |
| 1777646369 | 21.67° C | 31% | 1025.3 hPa | - | - | - | - |
| 1777645468 | 21.11° C | 29% | 1025.2 hPa | - | - | - | - |
| 1777644567 | 21.11° C | 31% | 1025.4 hPa | - | - | - | - |
| 1777643701 | 20.56° C | 31% | 1025.5 hPa | - | - | - | - |
| 1777643667 | 20.56° C | 31% | 1025.5 hPa | - | - | - | - |
| 1777642767 | 20.56° C | 33% | 1025.6 hPa | - | - | - | - |
* Rain since midnight (hover to see other rain measurements)
** Current wind speed in m/s (hover to see current wind gust speed)